Time;durP1;ratioP1;P1;durP2;ratioP2;P2;SDS_P1;SDS_P2;PMS_P1;PMS_P2;Temp;Humidity;BMP_temperature;BMP_pressure;BME280_temperature;BME280_humidity;BME280_pressure;Samples;Min_cycle;Max_cycle;Signal;HPM_P1;HPM_P2
2023/12/11 00:03:05;;;;;;;3.47;2.10;;;;;6.10;95195.00;;;;8335511;28;20308;-76
2023/12/11 00:07:09;;;;;;;6.90;1.83;;;;;6.10;95197.00;;;;8298882;28;20226;-76
2023/12/11 00:11:13;;;;;;;4.37;1.60;;;;;6.20;95210.00;;;;8310225;28;20206;-77
2023/12/11 00:15:16;;;;;;;5.80;2.13;;;;;6.20;95216.00;;;;8298133;28;20321;-76
2023/12/11 00:19:20;;;;;;;4.23;1.70;;;;;6.20;95214.00;;;;8300602;28;20682;-77
2023/12/11 00:23:24;;;;;;;5.80;1.80;;;;;6.20;95222.00;;;;8303172;28;20654;-77
2023/12/11 00:27:30;;;;;;;6.97;1.90;;;;;6.20;95231.00;;;;8316932;28;20261;-75
2023/12/11 00:31:34;;;;;;;8.87;1.63;;;;;6.30;95227.00;;;;8302861;28;20271;-74
2023/12/11 00:35:37;;;;;;;6.63;1.60;;;;;6.30;95255.00;;;;8312485;28;20235;-74
2023/12/11 00:39:40;;;;;;;5.97;1.73;;;;;6.30;95247.00;;;;8308867;28;20248;-73
2023/12/11 00:43:45;;;;;;;6.20;1.60;;;;;6.30;95242.00;;;;8308736;28;20197;-73
2023/12/11 00:47:48;;;;;;;2.47;1.60;;;;;6.30;95241.00;;;;8303965;28;20221;-72
2023/12/11 00:51:53;;;;;;;7.00;1.73;;;;;6.30;95234.00;;;;8302804;28;20198;-72
2023/12/11 00:55:56;;;;;;;9.00;1.60;;;;;6.30;95231.00;;;;8303701;28;20213;-72
2023/12/11 01:00:01;;;;;;;10.63;1.80;;;;;6.40;95221.00;;;;8292885;28;20202;-72
2023/12/11 01:04:04;;;;;;;9.40;2.00;;;;;6.40;95235.00;;;;8320633;28;20255;-72
2023/12/11 01:08:08;;;;;;;6.87;1.90;;;;;6.40;95233.00;;;;8345312;28;20192;-72
2023/12/11 01:12:11;;;;;;;10.73;2.00;;;;;6.40;95249.00;;;;8345864;28;20220;-72
2023/12/11 01:16:16;;;;;;;8.50;1.73;;;;;6.40;95242.00;;;;8349283;28;20239;-72
2023/12/11 01:20:20;;;;;;;10.23;2.10;;;;;6.50;95240.00;;;;8353130;28;20208;-73
2023/12/11 01:24:23;;;;;;;7.83;1.90;;;;;6.50;95241.00;;;;8350190;28;20205;-73
2023/12/11 01:28:26;;;;;;;8.23;1.87;;;;;6.60;95224.00;;;;8336410;28;20279;-73
2023/12/11 01:32:31;;;;;;;18.80;3.63;;;;;6.60;95225.00;;;;8352126;28;21203;-73
2023/12/11 01:36:34;;;;;;;3.70;1.87;;;;;6.60;95218.00;;;;8347958;28;20333;-73
2023/12/11 01:40:37;;;;;;;10.97;3.00;;;;;6.60;95231.00;;;;8340279;28;20224;-73
2023/12/11 01:44:40;;;;;;;5.97;1.90;;;;;6.60;95221.00;;;;8342176;28;20225;-73
2023/12/11 01:48:46;;;;;;;10.67;2.00;;;;;6.70;95237.00;;;;8351357;28;20283;-73
2023/12/11 01:52:49;;;;;;;8.10;2.10;;;;;6.70;95227.00;;;;8354714;28;20200;-73
2023/12/11 01:56:52;;;;;;;8.70;1.97;;;;;6.80;95235.00;;;;8344397;28;20288;-73
2023/12/11 02:00:56;;;;;;;8.17;2.17;;;;;6.80;95242.00;;;;8347410;28;20279;-74
2023/12/11 02:05:00;;;;;;;5.77;2.03;;;;;6.80;95233.00;;;;8343754;28;20256;-73
2023/12/11 02:09:05;;;;;;;8.13;2.50;;;;;6.80;95234.00;;;;8333419;28;20265;-73
2023/12/11 02:13:08;;;;;;;9.43;1.80;;;;;6.90;95241.00;;;;8351208;28;20295;-73
2023/12/11 02:17:11;;;;;;;8.73;2.10;;;;;6.90;95228.00;;;;8350981;28;20227;-74
2023/12/11 02:21:16;;;;;;;10.47;1.60;;;;;6.90;95239.00;;;;8350574;28;20224;-74
2023/12/11 02:25:19;;;;;;;4.63;1.57;;;;;7.00;95236.00;;;;8352776;28;20323;-73
2023/12/11 02:29:24;;;;;;;4.53;1.83;;;;;7.00;95230.00;;;;8351107;28;20613;-73
2023/12/11 02:33:27;;;;;;;14.07;2.33;;;;;7.10;95242.00;;;;8346890;28;20193;-73
2023/12/11 02:37:30;;;;;;;6.47;2.10;;;;;7.10;95260.00;;;;8351499;28;20201;-73
2023/12/11 02:41:34;;;;;;;9.03;1.93;;;;;7.10;95255.00;;;;8352737;28;20639;-73
2023/12/11 02:45:39;;;;;;;7.53;2.23;;;;;7.10;95259.00;;;;8355923;28;20248;-73
2023/12/11 02:49:42;;;;;;;9.13;2.60;;;;;7.00;95261.00;;;;8346008;28;20278;-74
2023/12/11 02:53:45;;;;;;;9.50;2.00;;;;;7.10;95263.00;;;;8339308;28;20291;-74
2023/12/11 02:57:48;;;;;;;6.03;2.10;;;;;7.10;95241.00;;;;8352890;28;20857;-74
2023/12/11 03:01:53;;;;;;;5.53;2.30;;;;;7.10;95250.00;;;;8366129;23;20272;-75
2023/12/11 03:05:56;;;;;;;4.23;2.00;;;;;7.10;95258.00;;;;8300026;28;20230;-74
2023/12/11 03:10:00;;;;;;;7.00;2.07;;;;;7.00;95240.00;;;;8306429;28;20540;-75
2023/12/11 03:14:03;;;;;;;7.33;2.13;;;;;6.90;95239.00;;;;8302543;28;20201;-75
2023/12/11 03:18:08;;;;;;;6.67;1.63;;;;;6.90;95243.00;;;;8305156;28;20458;-74
2023/12/11 03:22:11;;;;;;;9.80;2.00;;;;;6.80;95252.00;;;;8310524;28;20198;-74
2023/12/11 03:26:15;;;;;;;4.97;2.30;;;;;6.80;95258.00;;;;8305757;28;20226;-73
2023/12/11 03:30:18;;;;;;;9.23;1.77;;;;;6.70;95278.00;;;;8312395;28;20201;-74
2023/12/11 03:34:22;;;;;;;3.57;1.83;;;;;6.60;95289.00;;;;8293379;28;20198;-74
2023/12/11 03:38:26;;;;;;;7.70;2.23;;;;;6.70;95291.00;;;;8307248;28;20569;-75
2023/12/11 03:42:29;;;;;;;4.63;1.90;;;;;6.60;95282.00;;;;8308008;28;20196;-74
2023/12/11 03:46:32;;;;;;;3.97;2.00;;;;;6.60;95272.00;;;;8306512;28;20225;-74
2023/12/11 03:50:37;;;;;;;3.83;1.97;;;;;6.40;95270.00;;;;8292124;28;20314;-74
2023/12/11 03:54:40;;;;;;;4.83;2.00;;;;;6.30;95276.00;;;;8296294;28;20634;-74
2023/12/11 03:58:43;;;;;;;7.77;2.60;;;;;6.10;95270.00;;;;8305759;28;20240;-74
2023/12/11 04:02:46;;;;;;;6.27;2.07;;;;;6.00;95260.00;;;;8290962;28;21066;-74
2023/12/11 04:06:51;;;;;;;7.50;1.87;;;;;5.90;95255.00;;;;8277652;28;20823;-75
2023/12/11 04:10:54;;;;;;;6.63;2.20;;;;;5.80;95255.00;;;;8279518;28;20213;-75
2023/12/11 04:14:57;;;;;;;18.07;4.13;;;;;5.70;95253.00;;;;8295223;28;20205;-74
2023/12/11 04:19:00;;;;;;;10.47;2.47;;;;;5.70;95247.00;;;;8277607;28;20221;-73
2023/12/11 04:23:05;;;;;;;9.83;2.00;;;;;5.60;95255.00;;;;8272723;28;20204;-76
2023/12/11 04:27:08;;;;;;;9.70;2.40;;;;;5.50;95259.00;;;;8288155;28;20778;-74
2023/12/11 04:31:12;;;;;;;2.90;2.00;;;;;5.50;95261.00;;;;8276982;28;20301;-74
2023/12/11 04:35:15;;;;;;;8.13;3.00;;;;;5.60;95261.00;;;;8281666;28;20202;-73
2023/12/11 04:39:20;;;;;;;15.33;2.53;;;;;5.70;95272.00;;;;8279564;28;20907;-74
2023/12/11 04:43:23;;;;;;;5.97;2.57;;;;;5.90;95273.00;;;;8278278;28;20254;-73
2023/12/11 04:47:28;;;;;;;5.83;2.30;;;;;6.10;95270.00;;;;8282901;28;20233;-73
2023/12/11 04:51:32;;;;;;;6.37;3.63;;;;;6.20;95264.00;;;;8280846;28;20195;-73
2023/12/11 04:55:37;;;;;;;8.77;2.83;;;;;6.30;95252.00;;;;8285024;28;20738;-73
2023/12/11 04:59:40;;;;;;;11.03;3.60;;;;;6.50;95257.00;;;;8279440;28;20202;-75
2023/12/11 05:03:46;;;;;;;10.10;2.13;;;;;6.60;95257.00;;;;8289024;28;20340;-74
2023/12/11 05:07:49;;;;;;;3.23;2.30;;;;;6.60;95251.00;;;;8284956;28;20233;-74
2023/12/11 05:11:54;;;;;;;4.50;1.93;;;;;6.60;95242.00;;;;8274231;28;20225;-74
2023/12/11 05:15:57;;;;;;;4.57;2.47;;;;;6.70;95253.00;;;;8282108;28;20208;-74
2023/12/11 05:20:00;;;;;;;7.73;3.20;;;;;6.70;95244.00;;;;8280878;28;20195;-73
2023/12/11 05:24:04;;;;;;;11.53;4.50;;;;;6.80;95232.00;;;;8278039;28;20586;-74
2023/12/11 05:28:09;;;;;;;10.40;5.77;;;;;6.80;95238.00;;;;8262801;28;20229;-73
2023/12/11 05:32:13;;;;;;;22.67;6.43;;;;;6.80;95238.00;;;;8270277;28;20240;-74
2023/12/11 05:36:16;;;;;;;6.40;4.00;;;;;6.80;95242.00;;;;8269411;28;20278;-75
2023/12/11 05:40:20;;;;;;;9.23;2.80;;;;;6.90;95249.00;;;;8285932;28;20275;-73
2023/12/11 05:44:27;;;;;;;9.10;3.00;;;;;7.00;95253.00;;;;8283165;28;20265;-73
2023/12/11 05:48:30;;;;;;;3.70;2.60;;;;;7.00;95256.00;;;;8287843;28;20230;-72
2023/12/11 05:52:34;;;;;;;10.23;2.63;;;;;7.10;95267.00;;;;8288929;28;20770;-72
2023/12/11 05:56:37;;;;;;;10.53;2.97;;;;;7.00;95266.00;;;;8288193;28;20198;-74
2023/12/11 06:00:42;;;;;;;14.27;3.50;;;;;7.10;95278.00;;;;8295201;28;20199;-72
2023/12/11 06:04:45;;;;;;;11.77;3.53;;;;;7.10;95270.00;;;;8283734;28;20563;-72
2023/12/11 06:08:50;;;;;;;13.80;3.70;;;;;7.10;95281.00;;;;8289517;28;20345;-73
2023/12/11 06:12:53;;;;;;;101.37;7.97;;;;;7.20;95280.00;;;;8290032;28;20195;-74
2023/12/11 06:16:58;;;;;;;6.57;3.33;;;;;7.10;95287.00;;;;8290995;28;20673;-72
2023/12/11 06:21:01;;;;;;;137.10;8.50;;;;;7.10;95277.00;;;;8291288;28;20202;-74
2023/12/11 06:25:06;;;;;;;9.03;4.90;;;;;7.10;95273.00;;;;8291793;28;20216;-73
2023/12/11 06:29:09;;;;;;;8.23;4.47;;;;;7.10;95258.00;;;;8287580;28;20245;-73
2023/12/11 06:33:14;;;;;;;13.77;4.00;;;;;7.20;95269.00;;;;8288271;28;20202;-73
2023/12/11 06:37:17;;;;;;;15.23;4.63;;;;;7.20;95260.00;;;;8290437;28;20216;-75
2023/12/11 06:41:20;;;;;;;12.40;4.97;;;;;7.20;95262.00;;;;8289087;28;20226;-73
2023/12/11 06:45:23;;;;;;;8.47;4.27;;;;;7.30;95265.00;;;;8296647;28;20573;-74
2023/12/11 06:49:28;;;;;;;10.90;4.80;;;;;7.30;95256.00;;;;8300800;28;20320;-72
2023/12/11 06:53:31;;;;;;;11.33;5.07;;;;;7.40;95249.00;;;;8277801;28;20666;-71
2023/12/11 06:57:34;;;;;;;13.53;5.13;;;;;7.40;95241.00;;;;8286593;28;20197;-73
2023/12/11 07:01:38;;;;;;;9.43;4.70;;;;;7.50;95243.00;;;;8285972;28;20225;-74
2023/12/11 07:05:44;;;;;;;23.60;5.43;;;;;7.50;95232.00;;;;8296984;28;20202;-72
2023/12/11 07:09:47;;;;;;;145.97;10.30;;;;;7.50;95233.00;;;;8285947;28;20225;-73
2023/12/11 07:13:50;;;;;;;12.23;4.77;;;;;7.40;95227.00;;;;8294445;28;20201;-74
2023/12/11 07:17:54;;;;;;;10.90;5.10;;;;;7.50;95227.00;;;;8296109;28;20229;-80
2023/12/11 07:21:59;;;;;;;10.37;4.73;;;;;7.50;95235.00;;;;8293935;28;20193;-81
2023/12/11 07:26:04;;;;;;;576.13;27.93;;;;;7.50;95246.00;;;;8297504;28;20368;-80
2023/12/11 07:30:08;;;;;;;7.67;4.37;;;;;7.50;95250.00;;;;8291053;28;20260;-78
2023/12/11 07:34:11;;;;;;;8.27;5.20;;;;;7.60;95251.00;;;;8298186;28;20280;-79
2023/12/11 07:38:16;;;;;;;11.70;4.85;;;;;7.70;95246.00;;;;8289380;28;20612;-78
2023/12/11 07:42:19;;;;;;;11.23;5.03;;;;;7.70;95226.00;;;;8288386;28;20260;-82
2023/12/11 07:46:23;;;;;;;16.60;5.33;;;;;7.70;95216.00;;;;8283708;28;20206;-79
2023/12/11 07:50:26;;;;;;;11.37;6.07;;;;;7.70;95210.00;;;;8288805;28;20316;-79
2023/12/11 07:54:31;;;;;;;51.10;6.50;;;;;7.80;95198.00;;;;8285893;28;20206;-81
2023/12/11 07:58:35;;;;;;;20.90;4.82;;;;;8.00;95205.00;;;;8283667;28;20203;-80
2023/12/11 08:02:39;;;;;;;7.75;4.57;;;;;8.10;95204.00;;;;8281900;28;20320;-75
2023/12/11 08:06:43;;;;;;;10.20;4.40;;;;;8.20;95197.00;;;;8280707;28;20194;-77
2023/12/11 08:10:48;;;;;;;12.73;5.15;;;;;8.30;95183.00;;;;8274895;28;20998;-78
2023/12/11 08:14:51;;;;;;;7.30;4.47;;;;;8.30;95191.00;;;;8277580;28;20230;-79
2023/12/11 08:18:54;;;;;;;10.23;4.30;;;;;8.30;95179.00;;;;8279398;28;20291;-78
2023/12/11 08:22:58;;;;;;;9.93;4.17;;;;;8.40;95204.00;;;;8279275;28;20240;-77
2023/12/11 08:27:07;;;;;;;6.83;4.13;;;;;8.40;95190.00;;;;8274184;28;20871;-74
2023/12/11 08:31:11;;;;;;;7.55;4.95;;;;;8.50;95182.00;;;;8277296;28;20243;-74
2023/12/11 08:35:15;;;;;;;9.60;4.05;;;;;8.50;95179.00;;;;8281716;28;20651;-75
2023/12/11 08:39:18;;;;;;;9.57;3.80;;;;;8.60;95175.00;;;;8276330;28;20208;-75
2023/12/11 08:43:23;;;;;;;7.90;4.10;;;;;8.70;95181.00;;;;8277821;28;20600;-74
2023/12/11 08:47:26;;;;;;;5.88;3.50;;;;;8.80;95175.00;;;;8278922;28;20217;-75
2023/12/11 08:51:30;;;;;;;8.07;4.38;;;;;8.90;95189.00;;;;8278789;28;20236;-75
2023/12/11 08:55:33;;;;;;;4.53;3.63;;;;;8.90;95185.00;;;;8278422;28;20208;-76
2023/12/11 08:59:38;;;;;;;7.05;3.90;;;;;8.90;95172.00;;;;8279482;28;20822;-74
2023/12/11 09:03:42;;;;;;;9.63;3.95;;;;;9.00;95176.00;;;;8285805;28;20318;-75
2023/12/11 09:07:46;;;;;;;12.32;5.65;;;;;9.00;95175.00;;;;8287010;28;20272;-74
2023/12/11 09:11:49;;;;;;;8.68;4.78;;;;;9.10;95171.00;;;;8295672;28;21077;-77
2023/12/11 09:15:54;;;;;;;6.97;5.20;;;;;9.20;95172.00;;;;8284928;28;20315;-75
2023/12/11 09:19:57;;;;;;;10.68;5.28;;;;;9.30;95173.00;;;;8295582;28;20789;-77
2023/12/11 09:24:01;;;;;;;9.40;5.07;;;;;9.20;95188.00;;;;8288652;28;20252;-75
2023/12/11 09:28:04;;;;;;;10.48;4.43;;;;;9.20;95176.00;;;;8301205;28;20240;-75
2023/12/11 09:32:09;;;;;;;7.43;4.30;;;;;9.10;95184.00;;;;8293647;28;20207;-76
2023/12/11 09:36:13;;;;;;;5.47;4.07;;;;;9.00;95188.00;;;;8284614;28;20255;-77
2023/12/11 09:40:17;;;;;;;9.90;4.30;;;;;9.00;95176.00;;;;8275455;28;20296;-76
2023/12/11 09:44:22;;;;;;;4.60;3.60;;;;;9.00;95163.00;;;;8278811;28;20283;-76
2023/12/11 09:48:29;;;;;;;4.03;3.47;;;;;9.00;95163.00;;;;8275099;28;20221;-75
2023/12/11 09:52:36;;;;;;;6.15;4.22;;;;;9.00;95158.00;;;;8290013;28;20200;-76
2023/12/11 09:56:40;;;;;;;12.05;6.57;;;;;8.90;95152.00;;;;8286989;28;20212;-76
2023/12/11 10:00:43;;;;;;;451.70;245.38;;;;;8.90;95148.00;;;;8287315;28;20285;-75
2023/12/11 10:05:05;;;;;;;92.85;57.42;;;;;9.00;95139.00;;;;8271830;28;20257;-75
2023/12/11 10:09:08;;;;;;;20.57;12.90;;;;;9.00;95137.00;;;;8255920;28;20771;-76
2023/12/11 10:13:23;;;;;;;344.13;276.67;;;;;9.10;95118.00;;;;8260633;28;20204;-77
2023/12/11 10:17:29;;;;;;;28.40;18.00;;;;;9.10;95118.00;;;;8252811;28;20306;-76
2023/12/11 10:21:40;;;;;;;24.15;16.95;;;;;9.00;95116.00;;;;8260115;28;20209;-77
2023/12/11 10:25:45;;;;;;;442.58;209.30;;;;;9.10;95116.00;;;;8256572;28;20210;-77
2023/12/11 10:29:49;;;;;;;49.80;34.47;;;;;9.20;95117.00;;;;8257501;28;20234;-77
2023/12/11 10:33:52;;;;;;;14.63;10.13;;;;;9.30;95124.00;;;;8264714;28;20237;-77
2023/12/11 10:38:02;;;;;;;13.30;10.45;;;;;9.50;95127.00;;;;8259264;28;20206;-76
2023/12/11 10:42:17;;;;;;;13.43;9.45;;;;;9.50;95120.00;;;;8261433;28;20248;-76
2023/12/11 10:46:25;;;;;;;15.57;11.98;;;;;9.50;95110.00;;;;8267602;28;20268;-78
2023/12/11 10:50:28;;;;;;;17.08;14.43;;;;;9.60;95112.00;;;;8256884;28;20215;-77
2023/12/11 10:54:33;;;;;;;8.70;7.75;;;;;9.70;95111.00;;;;8257410;28;20219;-76
2023/12/11 10:58:37;;;;;;;9.13;6.13;;;;;9.70;95106.00;;;;8292250;28;20541;-75
2023/12/11 11:02:42;;;;;;;2.80;2.60;;;;;9.70;95100.00;;;;8316446;28;20315;-75
2023/12/11 11:06:52;;;;;;;3.10;2.60;;;;;9.70;95104.00;;;;8337839;28;20258;-76
2023/12/11 11:11:02;;;;;;;12.82;3.03;;;;;9.70;95098.00;;;;8338015;28;20256;-75
2023/12/11 11:15:09;;;;;;;2.83;2.00;;;;;9.80;95111.00;;;;8334800;28;20231;-75
2023/12/11 11:19:12;;;;;;;4.78;2.33;;;;;9.80;95101.00;;;;8335287;28;20191;-76
2023/12/11 11:23:31;;;;;;;2.67;2.25;;;;;9.80;95117.00;;;;8336397;28;20203;-75
2023/12/11 11:27:43;;;;;;;3.67;2.10;;;;;9.70;95131.00;;;;8336616;28;20184;-75
2023/12/11 11:31:54;;;;;;;4.75;2.42;;;;;9.70;95131.00;;;;8333148;28;20221;-75
2023/12/11 11:35:59;;;;;;;2.88;2.47;;;;;9.70;95119.00;;;;8334459;28;20629;-74
2023/12/11 11:40:04;;;;;;;3.08;2.13;;;;;9.80;95112.00;;;;8334314;28;20240;-74
2023/12/11 11:44:10;;;;;;;2.40;2.20;;;;;9.70;95112.00;;;;8336372;28;20519;-74
2023/12/11 11:48:14;;;;;;;5.15;2.10;;;;;9.70;95105.00;;;;8336992;28;20186;-74
2023/12/11 11:52:28;;;;;;;3.07;2.07;;;;;9.70;95099.00;;;;8337109;28;20202;-74
2023/12/11 11:56:45;;;;;;;2.40;2.30;;;;;9.70;95109.00;;;;8333847;28;20181;-74
2023/12/11 12:00:50;;;;;;;1.95;1.80;;;;;9.80;95110.00;;;;8336374;28;20194;-74
2023/12/11 12:04:55;;;;;;;4.13;2.40;;;;;9.80;95110.00;;;;8334032;28;20221;-75
2023/12/11 12:08:58;;;;;;;2.25;2.05;;;;;9.90;95103.00;;;;8331843;28;20594;-74
2023/12/11 12:13:04;;;;;;;7.35;2.42;;;;;10.00;95096.00;;;;8332584;28;20201;-75
2023/12/11 12:17:11;;;;;;;2.92;1.70;;;;;10.10;95096.00;;;;8331268;28;20186;-75
2023/12/11 12:21:16;;;;;;;1.63;1.52;;;;;10.20;95107.00;;;;8335145;28;20190;-76
2023/12/11 12:25:19;;;;;;;2.95;2.75;;;;;10.20;95100.00;;;;8334251;28;20619;-76
2023/12/11 12:29:22;;;;;;;12.35;9.48;;;;;10.30;95098.00;;;;8333362;28;20233;-75
2023/12/11 12:33:27;;;;;;;10.05;7.47;;;;;10.40;95096.00;;;;8334929;28;20568;-76
2023/12/11 12:37:32;;;;;;;193.05;91.03;;;;;10.50;95109.00;;;;8332190;28;20630;-77
2023/12/11 12:41:36;;;;;;;12.00;10.88;;;;;10.60;95112.00;;;;8332552;28;20586;-77
2023/12/11 12:45:39;;;;;;;2.38;2.22;;;;;10.60;95104.00;;;;8332334;28;20300;-77
2023/12/11 12:49:45;;;;;;;3.38;2.88;;;;;10.60;95097.00;;;;8333156;28;20286;-78
2023/12/11 12:53:49;;;;;;;2.95;2.75;;;;;10.70;95110.00;;;;8331355;28;20235;-78
2023/12/11 12:57:54;;;;;;;3.67;3.20;;;;;10.80;95108.00;;;;8332831;28;20201;-77
2023/12/11 13:01:57;;;;;;;2.55;2.35;;;;;10.90;95107.00;;;;8332578;28;20272;-76
2023/12/11 13:06:02;;;;;;;1.85;1.70;;;;;11.00;95114.00;;;;8332417;28;20196;-76
2023/12/11 13:10:10;;;;;;;2.67;2.47;;;;;11.00;95111.00;;;;8333659;28;20219;-76
2023/12/11 13:14:14;;;;;;;4.03;1.60;;;;;11.00;95107.00;;;;8331900;28;20224;-76
2023/12/11 13:18:17;;;;;;;4.05;1.90;;;;;11.00;95101.00;;;;8331255;28;20232;-74
2023/12/11 13:22:22;;;;;;;3.58;1.60;;;;;11.00;95106.00;;;;8330593;28;20243;-74
2023/12/11 13:26:25;;;;;;;2.33;1.73;;;;;10.90;95102.00;;;;8332038;28;20235;-73
2023/12/11 13:30:28;;;;;;;2.63;1.52;;;;;10.80;95108.00;;;;8331685;28;20312;-74
2023/12/11 13:34:31;;;;;;;3.45;1.60;;;;;10.80;95113.00;;;;8332048;28;20186;-75
2023/12/11 13:38:36;;;;;;;5.43;1.67;;;;;10.80;95125.00;;;;8332781;28;20225;-76
2023/12/11 13:42:39;;;;;;;1.58;1.50;;;;;10.70;95133.00;;;;8332161;28;20197;-75
2023/12/11 13:46:43;;;;;;;6.13;1.92;;;;;10.60;95136.00;;;;8331637;28;20245;-75
2023/12/11 13:50:46;;;;;;;4.10;1.30;;;;;10.50;95138.00;;;;8330684;28;20224;-76
2023/12/11 13:54:50;;;;;;;1.90;1.63;;;;;10.40;95131.00;;;;8333178;28;20196;-77
2023/12/11 13:58:54;;;;;;;3.03;1.63;;;;;10.40;95134.00;;;;8332457;28;20197;-76
2023/12/11 14:02:57;;;;;;;1.70;1.40;;;;;10.40;95146.00;;;;8331907;28;20221;-76
2023/12/11 14:07:06;;;;;;;4.03;1.42;;;;;10.40;95152.00;;;;8336329;28;20186;-77
2023/12/11 14:11:11;;;;;;;2.92;1.55;;;;;10.40;95154.00;;;;8338702;28;20309;-77
2023/12/11 14:15:14;;;;;;;1.52;1.40;;;;;10.30;95167.00;;;;8338090;28;20201;-77
2023/12/11 14:19:17;;;;;;;4.07;1.70;;;;;10.30;95180.00;;;;8338451;28;20203;-77
2023/12/11 14:23:21;;;;;;;5.57;1.60;;;;;10.30;95192.00;;;;8338323;28;20196;-77
2023/12/11 14:27:25;;;;;;;5.80;1.60;;;;;10.20;95194.00;;;;8338615;28;20284;-78
2023/12/11 14:31:30;;;;;;;3.85;2.00;;;;;10.00;95204.00;;;;8337692;28;20225;-79
2023/12/11 14:35:33;;;;;;;4.35;1.67;;;;;9.90;95213.00;;;;8336531;28;20284;-77
2023/12/11 14:39:36;;;;;;;7.70;2.78;;;;;9.90;95208.00;;;;8338194;28;20208;-76
2023/12/11 14:43:41;;;;;;;3.58;1.52;;;;;9.90;95212.00;;;;8337428;28;20216;-76
2023/12/11 14:47:45;;;;;;;2.35;1.70;;;;;9.80;95210.00;;;;8337139;28;20244;-76
2023/12/11 14:51:48;;;;;;;6.38;2.13;;;;;9.80;95217.00;;;;8337893;28;20215;-76
2023/12/11 14:55:51;;;;;;;5.03;1.70;;;;;9.70;95222.00;;;;8336810;28;20199;-75
2023/12/11 14:59:56;;;;;;;3.60;1.70;;;;;9.70;95204.00;;;;8336905;28;20247;-75
2023/12/11 15:03:59;;;;;;;3.47;1.75;;;;;9.70;95210.00;;;;8337969;28;20243;-75
2023/12/11 15:08:02;;;;;;;2.85;1.77;;;;;9.60;95220.00;;;;8336171;28;20195;-74
2023/12/11 15:12:06;;;;;;;3.47;1.90;;;;;9.60;95217.00;;;;8336710;28;20228;-73
2023/12/11 15:16:11;;;;;;;8.20;2.13;;;;;9.50;95217.00;;;;8337014;28;20229;-73
2023/12/11 15:20:15;;;;;;;2.33;1.88;;;;;9.50;95214.00;;;;8335280;28;20236;-73
2023/12/11 15:24:18;;;;;;;6.68;1.92;;;;;9.40;95217.00;;;;8333828;28;20197;-73
2023/12/11 15:28:21;;;;;;;5.20;1.90;;;;;9.40;95233.00;;;;8335970;28;20528;-73
2023/12/11 15:32:26;;;;;;;3.03;1.60;;;;;9.40;95240.00;;;;8334487;28;20249;-73
2023/12/11 15:36:29;;;;;;;3.22;1.80;;;;;9.40;95245.00;;;;8334886;28;20247;-72
2023/12/11 15:40:32;;;;;;;9.77;5.18;;;;;9.50;95254.00;;;;8312474;28;20199;-72
2023/12/11 15:44:38;;;;;;;6.47;2.40;;;;;9.60;95260.00;;;;8301243;28;20215;-72
2023/12/11 15:48:45;;;;;;;13.20;2.65;;;;;9.60;95259.00;;;;8298794;28;20224;-71
2023/12/11 15:52:49;;;;;;;10.35;2.55;;;;;9.60;95263.00;;;;8302258;28;20288;-72
2023/12/11 15:56:53;;;;;;;6.20;2.60;;;;;9.60;95264.00;;;;8301715;28;20226;-72
2023/12/11 16:00:56;;;;;;;5.50;2.00;;;;;9.60;95260.00;;;;8302241;28;20249;-72
2023/12/11 16:05:01;;;;;;;4.75;1.85;;;;;9.60;95256.00;;;;8302570;28;20658;-72
2023/12/11 16:09:04;;;;;;;10.48;2.17;;;;;9.70;95248.00;;;;8301201;28;20203;-73
2023/12/11 16:13:09;;;;;;;9.35;3.03;;;;;9.70;95258.00;;;;8300700;28;20219;-71
2023/12/11 16:17:12;;;;;;;11.40;2.47;;;;;9.70;95260.00;;;;8301665;28;20200;-75
2023/12/11 16:21:17;;;;;;;2.88;2.10;;;;;9.80;95261.00;;;;8294531;28;20225;-71
2023/12/11 16:25:20;;;;;;;4.18;1.85;;;;;9.80;95269.00;;;;8300251;28;20240;-72
2023/12/11 16:29:23;;;;;;;13.75;2.53;;;;;9.80;95272.00;;;;8300153;28;20624;-72
2023/12/11 16:33:26;;;;;;;5.43;2.40;;;;;9.80;95273.00;;;;8300991;28;20226;-72
2023/12/11 16:37:31;;;;;;;5.90;2.72;;;;;9.90;95278.00;;;;8300301;28;20258;-72
2023/12/11 16:41:42;;;;;;;5.78;2.72;;;;;9.90;95284.00;;;;8300205;28;20194;-71
2023/12/11 16:45:45;;;;;;;4.85;1.90;;;;;10.00;95297.00;;;;8300279;28;20179;-70
2023/12/11 16:49:48;;;;;;;8.30;2.10;;;;;10.00;95293.00;;;;8299250;28;20202;-71
2023/12/11 16:54:09;;;;;;;6.82;1.98;;;;;9.90;95303.00;;;;8300907;28;20205;-71
2023/12/11 16:58:12;;;;;;;14.10;3.88;;;;;9.90;95297.00;;;;8301246;28;20654;-71
2023/12/11 17:02:15;;;;;;;75.15;27.50;;;;;9.80;95301.00;;;;8298889;28;20232;-70
2023/12/11 17:06:21;;;;;;;40.55;24.35;;;;;9.70;95298.00;;;;8299717;28;20196;-70
2023/12/11 17:10:25;;;;;;;27.02;16.48;;;;;9.70;95296.00;;;;8299150;28;20207;-71
2023/12/11 17:14:29;;;;;;;14.23;4.22;;;;;9.60;95318.00;;;;8299571;28;20194;-70
2023/12/11 17:18:32;;;;;;;11.80;3.35;;;;;9.60;95330.00;;;;8299936;28;20632;-72
2023/12/11 17:22:36;;;;;;;9.40;3.42;;;;;9.60;95330.00;;;;8299333;28;20204;-72
2023/12/11 17:26:41;;;;;;;13.27;8.70;;;;;9.40;95334.00;;;;8299653;28;20202;-72
2023/12/11 17:30:45;;;;;;;15.70;5.60;;;;;9.00;95317.00;;;;8300282;28;20226;-70
2023/12/11 17:34:51;;;;;;;14.05;3.22;;;;;8.80;95316.00;;;;8299575;28;20204;-70
2023/12/11 17:38:54;;;;;;;8.50;3.15;;;;;8.60;95306.00;;;;8298997;28;20225;-71
2023/12/11 17:43:02;;;;;;;13.63;2.58;;;;;8.50;95329.00;;;;8299105;28;20182;-72
2023/12/11 17:47:05;;;;;;;13.13;2.20;;;;;8.40;95323.00;;;;8297701;28;20194;-71
2023/12/11 17:51:08;;;;;;;17.63;3.50;;;;;8.30;95346.00;;;;8295780;28;20276;-72
2023/12/11 17:55:14;;;;;;;13.77;2.42;;;;;8.20;95348.00;;;;8297546;28;20182;-72
2023/12/11 17:59:19;;;;;;;14.75;2.13;;;;;8.30;95347.00;;;;8298304;28;20234;-74
2023/12/11 18:03:22;;;;;;;14.60;2.90;;;;;8.30;95359.00;;;;8315348;28;20221;-73
2023/12/11 18:07:25;;;;;;;21.25;3.80;;;;;8.40;95366.00;;;;8329052;28;20639;-71
2023/12/11 18:11:29;;;;;;;15.57;2.45;;;;;8.40;95376.00;;;;8331626;28;20223;-72
2023/12/11 18:15:33;;;;;;;18.25;3.38;;;;;8.30;95369.00;;;;8330613;28;20236;-73
2023/12/11 18:19:36;;;;;;;24.77;2.80;;;;;8.20;95361.00;;;;8329892;28;20243;-73
2023/12/11 18:23:40;;;;;;;79.32;62.00;;;;;8.10;95373.00;;;;8330032;28;20193;-73
2023/12/11 18:27:43;;;;;;;37.40;17.20;;;;;8.10;95371.00;;;;8330376;28;20232;-73
2023/12/11 18:31:47;;;;;;;23.08;7.00;;;;;8.00;95370.00;;;;8329138;28;20228;-73
2023/12/11 18:35:50;;;;;;;14.30;5.05;;;;;7.90;95378.00;;;;8330120;28;20200;-75
2023/12/11 18:39:54;;;;;;;13.57;3.67;;;;;7.90;95389.00;;;;8330202;28;20200;-74
2023/12/11 18:43:57;;;;;;;26.05;4.13;;;;;8.00;95380.00;;;;8330939;28;20198;-74
2023/12/11 18:48:01;;;;;;;16.55;2.72;;;;;8.00;95381.00;;;;8330865;28;20193;-75
2023/12/11 18:52:08;;;;;;;13.48;2.75;;;;;7.90;95386.00;;;;8331900;28;20225;-75
2023/12/11 18:56:19;;;;;;;15.32;2.90;;;;;8.00;95400.00;;;;8336327;28;20182;-75
2023/12/11 19:00:22;;;;;;;9.25;2.35;;;;;8.10;95410.00;;;;8334916;28;20192;-75
2023/12/11 19:04:26;;;;;;;19.40;4.83;;;;;8.10;95400.00;;;;8336060;28;20670;-75
2023/12/11 19:08:30;;;;;;;17.88;4.05;;;;;8.10;95405.00;;;;8318906;28;20252;-76
2023/12/11 19:12:33;;;;;;;15.73;3.03;;;;;8.20;95415.00;;;;8303086;28;20222;-72
2023/12/11 19:16:36;;;;;;;11.10;2.70;;;;;8.20;95413.00;;;;8303948;28;20210;-72
2023/12/11 19:20:41;;;;;;;11.10;2.45;;;;;8.30;95418.00;;;;8300556;28;20194;-71
2023/12/11 19:24:44;;;;;;;12.35;2.35;;;;;8.30;95421.00;;;;8303870;28;20693;-73
2023/12/11 19:28:48;;;;;;;16.40;2.90;;;;;8.40;95421.00;;;;8301910;28;20621;-74
2023/12/11 19:32:51;;;;;;;13.43;3.22;;;;;8.50;95426.00;;;;8301681;28;20658;-73
2023/12/11 19:37:04;;;;;;;13.20;2.30;;;;;8.50;95422.00;;;;8302284;28;20255;-73
2023/12/11 19:41:07;;;;;;;11.05;2.35;;;;;8.50;95443.00;;;;8303656;28;20584;-74
2023/12/11 19:45:11;;;;;;;15.80;2.45;;;;;8.50;95442.00;;;;8299543;28;20198;-73
2023/12/11 19:49:14;;;;;;;11.82;2.70;;;;;8.50;95448.00;;;;8297340;28;20292;-73
2023/12/11 19:53:19;;;;;;;11.67;2.20;;;;;8.60;95449.00;;;;8299967;28;20217;-75
2023/12/11 19:57:22;;;;;;;15.05;2.60;;;;;8.70;95448.00;;;;8301668;28;20194;-74
2023/12/11 20:01:28;;;;;;;9.90;2.28;;;;;8.70;95461.00;;;;8301637;28;20238;-75
2023/12/11 20:05:31;;;;;;;13.90;2.65;;;;;8.70;95465.00;;;;8302253;28;20185;-75
2023/12/11 20:09:36;;;;;;;9.02;2.40;;;;;8.70;95462.00;;;;8298953;28;20194;-75
2023/12/11 20:13:39;;;;;;;19.77;3.67;;;;;8.60;95468.00;;;;8299274;28;20214;-75
2023/12/11 20:17:42;;;;;;;11.88;3.13;;;;;8.60;95472.00;;;;8302221;28;20523;-75
2023/12/11 20:21:46;;;;;;;12.45;2.60;;;;;8.60;95472.00;;;;8301684;28;20256;-75
2023/12/11 20:25:51;;;;;;;15.15;2.45;;;;;8.60;95478.00;;;;8301137;28;20247;-74
2023/12/11 20:29:54;;;;;;;12.43;2.75;;;;;8.60;95487.00;;;;8301013;28;20240;-74